createdAt,value
2022-10-11T00:00:16.670Z,101744.94
2022-10-11T00:03:04.105Z,101748.44
2022-10-11T00:05:31.604Z,101744.03
2022-10-11T00:07:58.732Z,101739.66
2022-10-11T00:10:25.945Z,101743.19
2022-10-11T00:12:53.244Z,101740.53
2022-10-11T00:15:22.829Z,101740.53
2022-10-11T00:17:50.566Z,101742.28
2022-10-11T00:20:18.384Z,101736.97
2022-10-11T00:22:45.350Z,101740.47
2022-10-11T00:25:13.083Z,101736.97
2022-10-11T00:27:40.522Z,101733.50
2022-10-11T00:30:09.438Z,101744.00
2022-10-11T00:32:38.332Z,101729.97
2022-10-11T00:35:07.252Z,101728.19
2022-10-11T00:37:35.817Z,101728.16
2022-10-11T00:40:04.410Z,101727.28
2022-10-11T00:42:32.208Z,101709.69
2022-10-11T00:45:27.063Z,101721.09
2022-10-11T00:47:56.576Z,101714.00
2022-10-11T00:50:24.794Z,101711.38
2022-10-11T00:53:00.223Z,101700.84
2022-10-11T00:55:33.400Z,101709.56
2022-10-11T00:58:01.369Z,101705.19
2022-10-11T01:00:29.712Z,101703.38
2022-10-11T01:02:57.015Z,101697.22
2022-10-11T01:05:31.427Z,101694.59
2022-10-11T01:08:02.701Z,101700.72
2022-10-11T01:10:30.009Z,101697.22
2022-10-11T01:13:17.030Z,101705.09
2022-10-11T01:15:58.661Z,101706.84
2022-10-11T01:19:00.108Z,101705.06
2022-10-11T01:21:46.205Z,101698.91
2022-10-11T01:24:25.239Z,101702.38
2022-10-11T01:27:12.394Z,101702.31
2022-10-11T01:30:01.442Z,101707.56
2022-10-11T01:32:47.527Z,101695.22
2022-10-11T01:35:37.341Z,101698.72
2022-10-11T01:38:11.406Z,101697.84
2022-10-11T01:40:45.742Z,101703.94
2022-10-11T01:43:15.527Z,101707.41
2022-10-11T01:45:44.828Z,101703.88
2022-10-11T01:48:13.923Z,101703.03
2022-10-11T01:50:46.176Z,101706.53
2022-10-11T01:53:32.460Z,101706.47
2022-10-11T01:56:29.252Z,101708.22
2022-10-11T01:59:30.139Z,101709.94
2022-10-11T02:02:25.272Z,101704.66
2022-10-11T02:05:09.327Z,101699.41
2022-10-11T02:07:56.932Z,101708.19
2022-10-11T02:10:32.308Z,101702.06
2022-10-11T02:13:16.929Z,101694.16
2022-10-11T02:15:46.988Z,101708.19
2022-10-11T02:18:19.805Z,101696.78
2022-10-11T02:20:49.027Z,101700.31
2022-10-11T02:23:35.172Z,101704.66
2022-10-11T02:26:06.919Z,101705.53
2022-10-11T02:28:38.188Z,101702.03
2022-10-11T02:31:07.913Z,101694.13
2022-10-11T02:34:05.138Z,101694.06
2022-10-11T02:36:43.559Z,101703.66
2022-10-11T02:39:24.304Z,101690.50
2022-10-11T02:41:53.243Z,101693.06
2022-10-11T02:44:32.070Z,101686.03
2022-10-11T02:47:01.120Z,101683.38
2022-10-11T02:49:33.173Z,101689.50
2022-10-11T02:52:00.119Z,101675.47
2022-10-11T02:54:27.413Z,101679.81
2022-10-11T02:56:54.599Z,101680.72
2022-10-11T02:59:21.589Z,101678.09
2022-10-11T03:01:48.701Z,101677.22
2022-10-11T03:04:16.206Z,101671.94
2022-10-11T03:06:43.334Z,101681.56
2022-10-11T03:09:10.448Z,101674.53
2022-10-11T03:11:38.041Z,101673.63
2022-10-11T03:14:05.182Z,101677.13
2022-10-11T03:16:32.293Z,101672.72
2022-10-11T03:18:59.559Z,101673.63
2022-10-11T03:21:26.611Z,101664.88
2022-10-11T03:23:53.691Z,101666.59
2022-10-11T03:26:20.966Z,101674.50
2022-10-11T03:28:47.998Z,101666.56
2022-10-11T03:31:15.083Z,101670.09
2022-10-11T03:33:42.646Z,101665.72
2022-10-11T03:36:10.003Z,101673.56
2022-10-11T03:38:36.960Z,101674.44
2022-10-11T03:41:04.242Z,101671.81
2022-10-11T03:43:32.518Z,101668.31
2022-10-11T03:45:59.497Z,101666.56
2022-10-11T03:48:27.019Z,101663.06
2022-10-11T03:51:02.066Z,101673.53
2022-10-11T03:53:37.664Z,101652.41
2022-10-11T03:56:08.487Z,101662.88
2022-10-11T03:58:36.600Z,101668.09
2022-10-11T04:01:03.869Z,101668.06
2022-10-11T04:03:31.938Z,101661.91
2022-10-11T04:05:59.828Z,101678.47
2022-10-11T04:08:27.036Z,101671.41
2022-10-11T04:10:54.060Z,101674.84
2022-10-11T04:13:21.695Z,101680.03
2022-10-11T04:15:53.860Z,101671.28
2022-10-11T04:18:43.114Z,101679.19
2022-10-11T04:21:11.261Z,101675.66
2022-10-11T04:23:40.612Z,101672.94
2022-10-11T04:26:11.679Z,101683.50
2022-10-11T04:28:39.478Z,101687.00
2022-10-11T04:31:09.099Z,101682.66
2022-10-11T04:33:44.486Z,101690.53
2022-10-11T04:36:11.422Z,101688.84
2022-10-11T04:38:40.489Z,101697.69
2022-10-11T04:44:27.657Z,101694.25
2022-10-11T04:46:54.878Z,101697.03
2022-10-11T04:49:24.616Z,101687.41
2022-10-11T04:55:20.644Z,101685.81
2022-10-11T04:57:47.525Z,101687.63
2022-10-11T05:00:18.329Z,101689.41
2022-10-11T05:02:45.284Z,101692.94
2022-10-11T05:05:17.520Z,101696.53
2022-10-11T05:07:44.854Z,101692.16
2022-10-11T05:10:11.881Z,101702.72
2022-10-11T05:12:41.920Z,101691.44
2022-10-11T05:15:09.698Z,101705.50
2022-10-11T05:17:36.796Z,101701.19
2022-10-11T05:20:04.223Z,101699.50
2022-10-11T05:22:31.434Z,101704.84
2022-10-11T05:25:00.080Z,101707.53
2022-10-11T05:27:27.498Z,101697.94
2022-10-11T05:29:54.838Z,101691.88
2022-10-11T05:32:24.574Z,101701.59
2022-10-11T05:35:02.590Z,101696.38
2022-10-11T05:37:29.761Z,101700.81
2022-10-11T05:39:59.216Z,101702.63
2022-10-11T05:42:26.313Z,101701.84
2022-10-11T05:44:53.371Z,101701.84
2022-10-11T05:47:20.666Z,101708.09
2022-10-11T05:49:47.772Z,101710.78
2022-10-11T05:52:20.012Z,101702.91
2022-10-11T05:54:50.996Z,101702.97
2022-10-11T05:57:18.575Z,101705.63
2022-10-11T05:59:48.322Z,101707.44
2022-10-11T06:02:25.341Z,101708.34
2022-10-11T06:04:52.411Z,101706.63
2022-10-11T06:07:21.257Z,101703.13
2022-10-11T06:09:48.553Z,101707.53
2022-10-11T06:12:15.572Z,101702.31
2022-10-11T06:14:43.889Z,101707.59
2022-10-11T06:17:10.959Z,101712.84
2022-10-11T06:19:37.999Z,101714.66
2022-10-11T06:22:05.446Z,101708.53
2022-10-11T06:24:36.679Z,101711.16
2022-10-11T06:27:04.320Z,101708.53
2022-10-11T06:29:32.022Z,101703.25
2022-10-11T06:31:59.165Z,101702.38
2022-10-11T06:34:26.870Z,101704.13
2022-10-11T06:36:56.937Z,101703.25
2022-10-11T06:39:24.190Z,101699.69
2022-10-11T06:41:51.529Z,101697.94
2022-10-11T06:44:18.839Z,101704.09
2022-10-11T06:46:47.096Z,101699.66
2022-10-11T06:49:22.195Z,101702.28
2022-10-11T06:51:51.206Z,101700.50
2022-10-11T06:54:21.642Z,101692.56
2022-10-11T06:56:49.244Z,101691.59
2022-10-11T06:59:18.714Z,101694.16
2022-10-11T07:01:46.096Z,101698.53
2022-10-11T07:04:13.153Z,101687.91
2022-10-11T07:06:41.955Z,101701.03
2022-10-11T07:09:09.526Z,101694.78
2022-10-11T07:11:41.346Z,101695.59
2022-10-11T07:14:10.817Z,101693.72
2022-10-11T07:16:39.414Z,101698.03
2022-10-11T07:19:07.125Z,101698.81
2022-10-11T07:21:37.065Z,101696.94
2022-10-11T07:24:05.145Z,101686.28
2022-10-11T07:26:37.890Z,101693.09
2022-10-11T07:29:12.303Z,101687.63
2022-10-11T07:31:45.086Z,101689.13
2022-10-11T07:34:12.698Z,101684.59
2022-10-11T07:36:40.873Z,101676.47
2022-10-11T07:39:11.639Z,101681.53
2022-10-11T07:41:44.562Z,101675.28
2022-10-11T07:44:15.892Z,101682.13
2022-10-11T07:46:47.513Z,101681.03
2022-10-11T07:49:14.707Z,101684.38
2022-10-11T07:51:41.757Z,101679.81
2022-10-11T07:54:18.319Z,101692.78
2022-10-11T07:56:47.959Z,101684.72
2022-10-11T07:59:16.665Z,101686.22
2022-10-11T08:01:44.610Z,101665.72
2022-10-11T08:04:11.842Z,101666.25
2022-10-11T08:06:39.096Z,101665.16
2022-10-11T08:09:06.452Z,101664.94
2022-10-11T08:11:39.193Z,101661.03
2022-10-11T08:14:09.135Z,101658.88
2022-10-11T08:16:37.533Z,101662.84
2022-10-11T08:19:05.778Z,101650.06
2022-10-11T08:21:35.276Z,101643.44
2022-10-11T08:24:04.906Z,101651.78
2022-10-11T08:26:33.722Z,101644.22
2022-10-11T08:29:05.463Z,101634.94
2022-10-11T08:31:34.444Z,101633.41
2022-10-11T08:34:01.740Z,101627.44
2022-10-11T08:36:30.259Z,101634.56
2022-10-11T08:39:06.936Z,101630.75
2022-10-11T08:42:03.410Z,101632.47
2022-10-11T08:45:12.517Z,101621.00
2022-10-11T08:47:43.872Z,101627.59
2022-10-11T08:50:21.173Z,101621.47
2022-10-11T08:53:06.105Z,101610.16
2022-10-11T08:55:39.732Z,101618.03
2022-10-11T08:58:07.043Z,101616.13
2022-10-11T09:00:42.682Z,101630.66
2022-10-11T09:03:29.531Z,101616.03
2022-10-11T09:06:21.694Z,101614.22
2022-10-11T09:08:57.944Z,101616.53
2022-10-11T09:11:50.064Z,101611.53
2022-10-11T09:14:45.947Z,101612.78
2022-10-11T09:17:47.266Z,101612.50
2022-10-11T09:20:41.496Z,101604.25
2022-10-11T09:23:27.305Z,101599.13
2022-10-11T09:26:33.755Z,101601.03
2022-10-11T09:29:32.268Z,101597.81
2022-10-11T09:32:01.040Z,101595.75
2022-10-11T09:34:36.060Z,101598.53
2022-10-11T09:37:32.299Z,101590.06
2022-10-11T09:40:44.358Z,101584.78
2022-10-11T09:43:11.858Z,101578.47
2022-10-11T09:48:41.291Z,101569.78
2022-10-11T09:51:19.909Z,101571.75
2022-10-11T09:53:56.906Z,101572.13
2022-10-11T09:56:37.215Z,101566.88
2022-10-11T09:59:31.268Z,101554.78
2022-10-11T10:02:09.755Z,101555.44
2022-10-11T10:05:15.432Z,101563.13
2022-10-11T10:08:04.072Z,101563.88
2022-10-11T10:10:35.956Z,101557.56
2022-10-11T10:13:07.618Z,101552.75
2022-10-11T10:15:37.015Z,101548.16
2022-10-11T10:18:10.632Z,101556.34
2022-10-11T10:20:40.753Z,101550.03
2022-10-11T10:23:28.730Z,101550.09
2022-10-11T10:26:12.407Z,101543.47
2022-10-11T10:29:11.103Z,101539.00
2022-10-11T10:32:13.459Z,101537.69
2022-10-11T10:35:13.041Z,101524.28
2022-10-11T10:38:27.246Z,101529.34
2022-10-11T10:41:02.818Z,101524.03
2022-10-11T10:43:37.551Z,101518.63
2022-10-11T10:46:23.151Z,101516.31
2022-10-11T10:49:48.319Z,101513.88
2022-10-11T10:52:33.432Z,101510.13
2022-10-11T10:55:12.684Z,101499.38
2022-10-11T10:57:52.168Z,101511.41
2022-10-11T11:00:21.831Z,101513.72
2022-10-11T11:03:12.993Z,101516.16
2022-10-11T11:05:40.181Z,101508.31
2022-10-11T11:08:35.515Z,101502.06
2022-10-11T11:11:08.502Z,101505.72
2022-10-11T11:13:51.756Z,101487.50
2022-10-11T11:16:32.942Z,101486.19
2022-10-11T11:19:07.280Z,101488.88
2022-10-11T11:21:54.603Z,101478.97
2022-10-11T11:24:46.262Z,101479.97
2022-10-11T11:27:37.997Z,101478.72
2022-10-11T11:30:13.765Z,101476.81
2022-10-11T11:32:55.795Z,101471.44
2022-10-11T11:35:39.358Z,101459.97
2022-10-11T11:38:42.698Z,101468.06
2022-10-11T11:41:41.373Z,101457.59
2022-10-11T11:44:23.801Z,101460.09
2022-10-11T11:47:13.842Z,101459.56
2022-10-11T11:49:46.590Z,101467.06
2022-10-11T11:52:43.691Z,101451.09
2022-10-11T11:55:32.380Z,101456.53
2022-10-11T11:58:36.099Z,101441.84
2022-10-11T12:01:31.149Z,101454.66
2022-10-11T12:04:05.151Z,101438.38
2022-10-11T12:06:35.908Z,101447.75
2022-10-11T12:09:17.128Z,101442.03
2022-10-11T12:12:25.850Z,101441.94
2022-10-11T12:15:04.834Z,101435.25
2022-10-11T12:17:34.917Z,101438.63
2022-10-11T12:20:40.300Z,101435.94
2022-10-11T12:23:30.718Z,101438.16
2022-10-11T12:26:28.203Z,101436.72
2022-10-11T12:29:28.817Z,101438.44
2022-10-11T12:32:14.931Z,101430.56
2022-10-11T12:34:45.534Z,101423.31
2022-10-11T12:37:19.526Z,101436.28
2022-10-11T12:39:51.892Z,101433.44
2022-10-11T12:42:23.038Z,101425.28
2022-10-11T12:45:13.014Z,101423.53
2022-10-11T12:48:00.338Z,101421.53
2022-10-11T12:50:41.782Z,101416.03
2022-10-11T12:53:30.758Z,101424.25
2022-10-11T12:56:09.006Z,101419.72
2022-10-11T12:58:47.140Z,101416.03
2022-10-11T13:01:19.722Z,101415.81
2022-10-11T13:03:57.683Z,101423.97
2022-10-11T13:06:29.518Z,101411.56
2022-10-11T13:09:30.530Z,101418.50
2022-10-11T13:12:08.809Z,101410.34
2022-10-11T13:14:42.564Z,101400.53
2022-10-11T13:17:27.106Z,101404.69
2022-10-11T13:20:06.571Z,101407.91
2022-10-11T13:22:37.788Z,101401.84
2022-10-11T13:25:06.922Z,101399.22
2022-10-11T13:27:36.451Z,101395.28
2022-10-11T13:30:08.689Z,101398.13
2022-10-11T13:32:37.061Z,101402.81
2022-10-11T13:35:07.557Z,101403.88
2022-10-11T13:37:44.326Z,101393.47
2022-10-11T13:40:20.449Z,101398.00
2022-10-11T13:42:50.798Z,101387.13
2022-10-11T13:45:21.782Z,101395.19
2022-10-11T13:47:50.762Z,101394.88
2022-10-11T13:50:17.643Z,101404.47
2022-10-11T13:52:59.133Z,101391.44
2022-10-11T13:55:35.585Z,101385.97
2022-10-11T13:58:14.983Z,101380.84
2022-10-11T14:00:54.990Z,101392.22
2022-10-11T14:03:27.066Z,101385.28
2022-10-11T14:06:00.735Z,101384.31
2022-10-11T14:08:44.018Z,101384.22
2022-10-11T14:11:13.233Z,101379.78
2022-10-11T14:13:44.995Z,101387.00
2022-10-11T14:16:18.407Z,101381.81
2022-10-11T14:18:50.242Z,101385.47
2022-10-11T14:21:20.711Z,101387.47
2022-10-11T14:23:51.311Z,101384.97
2022-10-11T14:26:20.631Z,101384.28
2022-10-11T14:28:56.634Z,101374.94
2022-10-11T14:31:24.545Z,101384.78
2022-10-11T14:33:54.177Z,101377.09
2022-10-11T14:36:27.925Z,101376.88
2022-10-11T14:39:03.871Z,101381.25
2022-10-11T14:41:36.760Z,101377.88
2022-10-11T14:44:05.155Z,101381.00
2022-10-11T14:46:34.599Z,101384.47
2022-10-11T14:49:16.461Z,101387.19
2022-10-11T14:51:46.556Z,101386.03
2022-10-11T14:54:32.935Z,101389.38
2022-10-11T14:57:03.236Z,101386.41
2022-10-11T14:59:37.527Z,101380.94
2022-10-11T15:02:08.772Z,101389.56
2022-10-11T15:04:36.861Z,101391.19
2022-10-11T15:07:06.192Z,101384.34
2022-10-11T15:09:34.837Z,101383.66
2022-10-11T15:12:05.218Z,101394.81
2022-10-11T15:14:33.457Z,101398.44
2022-10-11T15:17:00.475Z,101397.06
2022-10-11T15:19:27.902Z,101399.56
2022-10-11T15:21:54.942Z,101402.00
2022-10-11T15:24:22.994Z,101399.16
2022-10-11T15:26:52.299Z,101406.13
2022-10-11T15:29:20.562Z,101404.97
2022-10-11T15:31:52.584Z,101415.50
2022-10-11T15:34:20.418Z,101416.53
2022-10-11T15:36:50.502Z,101414.72
2022-10-11T15:39:32.670Z,101419.63
2022-10-11T15:42:01.206Z,101418.72
2022-10-11T15:44:28.419Z,101411.28
2022-10-11T15:47:02.480Z,101428.50
2022-10-11T15:49:32.244Z,101427.34
2022-10-11T15:51:59.510Z,101417.41
2022-10-11T15:54:26.515Z,101429.25
2022-10-11T15:56:54.426Z,101433.97
2022-10-11T15:59:21.847Z,101435.34
2022-10-11T16:01:50.805Z,101437.66
2022-10-11T16:04:18.056Z,101446.06
2022-10-11T16:06:45.451Z,101441.16
2022-10-11T16:09:14.924Z,101443.47
2022-10-11T16:11:42.525Z,101451.56
2022-10-11T16:14:10.096Z,101451.06
2022-10-11T16:16:42.546Z,101446.06
2022-10-11T16:19:12.284Z,101454.19
2022-10-11T16:21:39.606Z,101445.59
2022-10-11T16:24:07.479Z,101451.97
2022-10-11T16:26:34.867Z,101465.31
2022-10-11T16:29:01.942Z,101468.03
2022-10-11T16:31:29.908Z,101457.63
2022-10-11T16:33:57.995Z,101466.50
2022-10-11T16:36:42.188Z,101470.06
2022-10-11T16:39:17.622Z,101472.88
2022-10-11T16:41:59.760Z,101474.78
2022-10-11T16:44:28.026Z,101466.19
2022-10-11T16:49:47.246Z,101469.25
2022-10-11T16:52:15.678Z,101469.31
2022-10-11T16:55:18.860Z,101471.13
2022-10-11T16:57:48.973Z,101470.47
2022-10-11T17:00:32.124Z,101482.06
2022-10-11T17:03:02.749Z,101473.31
2022-10-11T17:08:31.162Z,101477.13
2022-10-11T17:11:06.641Z,101484.41
2022-10-11T17:13:44.367Z,101477.38
2022-10-11T17:16:13.339Z,101489.91
2022-10-11T17:18:48.555Z,101481.97
2022-10-11T17:21:34.373Z,101484.59
2022-10-11T17:24:21.498Z,101490.94
2022-10-11T17:26:59.817Z,101485.03
2022-10-11T17:29:34.958Z,101477.19
2022-10-11T17:32:09.150Z,101485.28
2022-10-11T17:34:36.375Z,101487.09
2022-10-11T17:39:45.745Z,101492.56
2022-10-11T17:42:24.110Z,101486.34
2022-10-11T17:44:51.600Z,101488.16
2022-10-11T17:47:25.687Z,101494.44
2022-10-11T17:49:59.353Z,101491.00
2022-10-11T17:52:29.525Z,101505.28
2022-10-11T17:54:57.068Z,101492.25
2022-10-11T17:57:26.028Z,101495.19
2022-10-11T17:59:54.009Z,101489.25
2022-10-11T18:02:22.826Z,101488.59
2022-10-11T18:04:53.863Z,101487.94
2022-10-11T18:08:17.764Z,101496.75
2022-10-11T18:10:47.809Z,101488.25
2022-10-11T18:13:15.511Z,101490.97
2022-10-11T18:15:44.690Z,101478.06
2022-10-11T18:18:22.019Z,101485.22
2022-10-11T18:20:50.841Z,101488.00
2022-10-11T18:23:27.463Z,101488.16
2022-10-11T18:28:47.015Z,101496.34
2022-10-11T18:31:24.299Z,101492.94
2022-10-11T18:33:55.317Z,101479.94
2022-10-11T18:39:27.946Z,101502.88
2022-10-11T18:41:55.240Z,101490.78
2022-10-11T18:44:39.997Z,101492.59
2022-10-11T18:47:17.103Z,101490.91
2022-10-11T18:49:46.826Z,101493.63
2022-10-11T18:55:31.957Z,101486.78
2022-10-11T18:58:03.493Z,101488.59
2022-10-11T19:00:40.524Z,101490.47
2022-10-11T19:03:09.065Z,101495.81
2022-10-11T19:05:40.080Z,101495.88
2022-10-11T19:08:14.331Z,101499.47
2022-10-11T19:10:41.853Z,101504.00
2022-10-11T19:13:09.884Z,101500.63
2022-10-11T19:15:37.148Z,101508.63
2022-10-11T19:18:04.226Z,101503.47
2022-10-11T19:20:35.836Z,101519.34
2022-10-11T19:23:03.341Z,101516.78
2022-10-11T19:25:30.728Z,101508.06
2022-10-11T19:31:08.526Z,101509.00
2022-10-11T19:33:36.109Z,101510.03
2022-10-11T19:36:05.608Z,101523.19
2022-10-11T19:38:35.063Z,101520.59
2022-10-11T19:41:03.624Z,101507.47
2022-10-11T19:43:32.146Z,101512.75
2022-10-11T19:46:03.549Z,101522.41
2022-10-11T19:48:30.949Z,101515.44
2022-10-11T19:51:09.518Z,101529.47
2022-10-11T19:53:38.442Z,101528.56
2022-10-11T19:56:12.409Z,101529.41
2022-10-11T19:58:39.973Z,101526.78
2022-10-11T20:01:10.382Z,101533.75
2022-10-11T20:03:38.544Z,101538.19
2022-10-11T20:06:08.125Z,101542.53
2022-10-11T20:08:36.680Z,101530.19
2022-10-11T20:11:09.525Z,101532.75
2022-10-11T20:13:37.764Z,101530.09
2022-10-11T20:16:10.585Z,101530.09
2022-10-11T20:19:04.085Z,101516.88
2022-10-11T20:25:18.063Z,101525.56
2022-10-11T20:27:47.520Z,101524.69
2022-10-11T20:30:15.485Z,101530.78
2022-10-11T20:32:44.030Z,101528.09
2022-10-11T20:35:11.731Z,101520.22
2022-10-11T20:37:40.004Z,101521.06
2022-10-11T20:40:07.556Z,101535.19
2022-10-11T20:42:35.071Z,101526.31
2022-10-11T20:45:02.161Z,101528.00
2022-10-11T20:47:29.245Z,101522.72
2022-10-11T20:49:56.429Z,101521.78
2022-10-11T20:52:25.907Z,101516.47
2022-10-11T20:54:52.999Z,101526.06
2022-10-11T20:57:20.223Z,101523.38
2022-10-11T20:59:48.051Z,101530.41
2022-10-11T21:02:18.839Z,101519.81
2022-10-11T21:04:46.410Z,101523.31
2022-10-11T21:07:13.360Z,101519.69
2022-10-11T21:09:40.597Z,101529.38
2022-10-11T21:12:07.700Z,101537.34
2022-10-11T21:14:34.879Z,101538.25
2022-10-11T21:17:01.946Z,101536.47
2022-10-11T21:19:29.694Z,101540.88
2022-10-11T21:21:57.242Z,101539.00
2022-10-11T21:24:24.173Z,101526.72
2022-10-11T21:26:51.571Z,101526.78
2022-10-11T21:29:23.137Z,101535.59
2022-10-11T21:31:50.193Z,101530.34
2022-10-11T21:34:17.788Z,101524.16
2022-10-11T21:36:44.861Z,101534.75
2022-10-11T21:39:11.959Z,101533.03
2022-10-11T21:41:42.469Z,101532.97
2022-10-11T21:44:10.851Z,101529.47
2022-10-11T21:47:04.904Z,101537.38
2022-10-11T21:49:25.416Z,101535.56
2022-10-11T21:54:52.026Z,101528.50
2022-10-11T21:57:19.722Z,101536.44
2022-10-11T21:59:46.767Z,101532.09
2022-10-11T22:02:13.795Z,101525.09
2022-10-11T22:04:41.014Z,101529.53
2022-10-11T22:07:08.039Z,101528.69
2022-10-11T22:09:35.149Z,101526.91
2022-10-11T22:12:03.238Z,101531.31
2022-10-11T22:14:30.927Z,101539.28
2022-10-11T22:16:58.396Z,101534.00
2022-10-11T22:19:25.705Z,101528.69
2022-10-11T22:21:52.871Z,101520.78
2022-10-11T22:24:19.913Z,101533.03
2022-10-11T22:26:47.190Z,101533.84
2022-10-11T22:29:14.186Z,101525.88
2022-10-11T22:31:41.546Z,101514.44
2022-10-11T22:34:08.920Z,101524.09
2022-10-11T22:36:36.284Z,101515.25
2022-10-11T22:39:08.391Z,101518.75
2022-10-11T22:41:36.126Z,101512.59
2022-10-11T22:44:03.950Z,101524.91
2022-10-11T22:46:31.349Z,101522.28
2022-10-11T22:48:58.708Z,101517.84
2022-10-11T22:51:25.955Z,101517.84
2022-10-11T22:53:53.117Z,101521.31
2022-10-11T22:56:20.450Z,101517.78
2022-10-11T22:58:47.529Z,101515.19
2022-10-11T23:01:18.221Z,101516.91
2022-10-11T23:03:49.358Z,101513.38
2022-10-11T23:06:16.610Z,101509.84
2022-10-11T23:08:44.525Z,101516.09
2022-10-11T23:11:12.750Z,101509.03
2022-10-11T23:13:39.749Z,101524.00
2022-10-11T23:16:12.073Z,101515.09
2022-10-11T23:18:40.954Z,101506.38
2022-10-11T23:21:10.303Z,101512.50
2022-10-11T23:23:39.948Z,101504.56
2022-10-11T23:26:16.941Z,101506.34
2022-10-11T23:28:44.498Z,101509.84
2022-10-11T23:31:17.569Z,101507.22
2022-10-11T23:33:45.964Z,101505.44
2022-10-11T23:36:16.989Z,101508.84
2022-10-11T23:38:45.279Z,101500.88
2022-10-11T23:41:12.269Z,101500.81
2022-10-11T23:43:39.518Z,101503.41
2022-10-11T23:46:06.610Z,101506.94
2022-10-11T23:48:33.627Z,101503.44
2022-10-11T23:51:01.204Z,101498.16
2022-10-11T23:53:28.620Z,101507.84
2022-10-11T23:55:55.682Z,101509.66
2022-10-11T23:58:23.078Z,101514.03
